sensor_id;sensor_type;location;lat;lon;timestamp;pressure;altitude;pressure_sealevel;temperature;humidity
58973;BME280;44750;52.040;7.472;2023-04-04T00:01:29;101664.03;;;2.78;100.00
58973;BME280;44750;52.040;7.472;2023-04-04T00:06:29;101691.22;;;2.86;100.00
58973;BME280;44750;52.040;7.472;2023-04-04T00:11:29;101688.94;;;2.78;100.00
58973;BME280;44750;52.040;7.472;2023-04-04T00:16:29;101690.84;;;2.76;100.00
58973;BME280;44750;52.040;7.472;2023-04-04T00:21:30;101678.13;;;2.64;100.00
58973;BME280;44750;52.040;7.472;2023-04-04T00:26:30;101676.69;;;2.57;100.00
58973;BME280;44750;52.040;7.472;2023-04-04T00:31:31;101674.84;;;2.57;100.00
58973;BME280;44750;52.040;7.472;2023-04-04T00:36:31;101679.28;;;2.58;100.00
58973;BME280;44750;52.040;7.472;2023-04-04T00:41:31;101657.59;;;2.47;100.00
58973;BME280;44750;52.040;7.472;2023-04-04T00:46:32;101654.34;;;2.40;100.00
58973;BME280;44750;52.040;7.472;2023-04-04T00:51:32;101656.56;;;2.32;100.00
58973;BME280;44750;52.040;7.472;2023-04-04T00:56:35;101669.75;;;2.35;100.00
58973;BME280;44750;52.040;7.472;2023-04-04T01:01:36;101651.59;;;2.24;100.00
58973;BME280;44750;52.040;7.472;2023-04-04T01:06:37;101658.03;;;2.20;100.00
58973;BME280;44750;52.040;7.472;2023-04-04T01:11:37;101648.56;;;2.13;100.00
58973;BME280;44750;52.040;7.472;2023-04-04T01:16:38;101640.06;;;2.05;100.00
58973;BME280;44750;52.040;7.472;2023-04-04T01:21:39;101643.09;;;1.97;100.00
58973;BME280;44750;52.040;7.472;2023-04-04T01:26:39;101649.38;;;1.96;100.00
58973;BME280;44750;52.040;7.472;2023-04-04T01:31:42;101644.69;;;2.01;100.00
58973;BME280;44750;52.040;7.472;2023-04-04T01:36:50;101633.16;;;2.00;100.00
58973;BME280;44750;52.040;7.472;2023-04-04T01:41:57;101620.16;;;1.93;100.00
58973;BME280;44750;52.040;7.472;2023-04-04T01:46:58;101614.41;;;1.83;100.00
58973;BME280;44750;52.040;7.472;2023-04-04T01:51:58;101617.00;;;1.84;100.00
58973;BME280;44750;52.040;7.472;2023-04-04T01:56:58;101616.19;;;1.82;100.00
58973;BME280;44750;52.040;7.472;2023-04-04T02:01:58;101605.75;;;1.78;100.00
58973;BME280;44750;52.040;7.472;2023-04-04T02:06:59;101612.84;;;1.79;100.00
58973;BME280;44750;52.040;7.472;2023-04-04T02:11:59;101612.28;;;1.72;100.00
58973;BME280;44750;52.040;7.472;2023-04-04T02:16:59;101596.97;;;1.57;100.00
58973;BME280;44750;52.040;7.472;2023-04-04T02:21:59;101592.31;;;1.43;100.00
58973;BME280;44750;52.040;7.472;2023-04-04T02:27:00;101604.31;;;1.52;100.00
58973;BME280;44750;52.040;7.472;2023-04-04T02:32:00;101615.00;;;1.52;100.00
58973;BME280;44750;52.040;7.472;2023-04-04T02:37:00;101614.34;;;1.46;100.00
58973;BME280;44750;52.040;7.472;2023-04-04T02:42:00;101613.13;;;1.34;100.00
58973;BME280;44750;52.040;7.472;2023-04-04T02:47:00;101598.56;;;1.23;100.00
58973;BME280;44750;52.040;7.472;2023-04-04T02:52:01;101610.09;;;1.23;100.00
58973;BME280;44750;52.040;7.472;2023-04-04T02:57:01;101608.16;;;1.27;100.00
58973;BME280;44750;52.040;7.472;2023-04-04T03:02:01;101584.59;;;1.17;100.00
58973;BME280;44750;52.040;7.472;2023-04-04T03:07:02;101586.25;;;1.20;100.00
58973;BME280;44750;52.040;7.472;2023-04-04T03:12:02;101588.03;;;1.20;100.00
58973;BME280;44750;52.040;7.472;2023-04-04T03:17:02;101598.56;;;1.23;100.00
58973;BME280;44750;52.040;7.472;2023-04-04T03:22:03;101576.00;;;1.11;100.00
58973;BME280;44750;52.040;7.472;2023-04-04T03:27:03;101582.13;;;1.13;100.00
58973;BME280;44750;52.040;7.472;2023-04-04T03:32:03;101569.00;;;1.08;100.00
58973;BME280;44750;52.040;7.472;2023-04-04T03:37:04;101594.16;;;1.22;100.00
58973;BME280;44750;52.040;7.472;2023-04-04T03:42:04;101583.44;;;1.23;100.00
58973;BME280;44750;52.040;7.472;2023-04-04T03:47:04;101586.81;;;1.27;100.00
58973;BME280;44750;52.040;7.472;2023-04-04T03:52:05;101571.75;;;1.26;100.00
58973;BME280;44750;52.040;7.472;2023-04-04T03:57:05;101564.91;;;1.20;100.00
58973;BME280;44750;52.040;7.472;2023-04-04T04:02:05;101560.03;;;1.09;100.00
58973;BME280;44750;52.040;7.472;2023-04-04T04:07:05;101547.16;;;1.00;100.00
58973;BME280;44750;52.040;7.472;2023-04-04T04:12:06;101551.84;;;0.95;100.00
58973;BME280;44750;52.040;7.472;2023-04-04T04:17:06;101533.13;;;0.76;100.00
58973;BME280;44750;52.040;7.472;2023-04-04T04:22:06;101549.34;;;0.71;100.00
58973;BME280;44750;52.040;7.472;2023-04-04T04:27:07;101544.94;;;0.70;100.00
58973;BME280;44750;52.040;7.472;2023-04-04T04:32:07;101557.34;;;0.71;100.00
58973;BME280;44750;52.040;7.472;2023-04-04T04:37:07;101560.75;;;0.75;100.00
58973;BME280;44750;52.040;7.472;2023-04-04T04:42:07;101559.13;;;0.71;100.00
58973;BME280;44750;52.040;7.472;2023-04-04T04:47:08;101536.38;;;0.63;100.00
58973;BME280;44750;52.040;7.472;2023-04-04T04:52:08;101549.50;;;0.68;100.00
58973;BME280;44750;52.040;7.472;2023-04-04T04:57:08;101553.75;;;0.72;100.00
58973;BME280;44750;52.040;7.472;2023-04-04T05:02:08;101528.59;;;0.59;100.00
58973;BME280;44750;52.040;7.472;2023-04-04T05:07:09;101537.38;;;0.61;100.00
58973;BME280;44750;52.040;7.472;2023-04-04T05:12:09;101539.38;;;0.56;100.00
58973;BME280;44750;52.040;7.472;2023-04-04T05:17:09;101531.78;;;0.46;100.00
58973;BME280;44750;52.040;7.472;2023-04-04T05:22:09;101554.81;;;0.47;100.00
58973;BME280;44750;52.040;7.472;2023-04-04T05:27:09;101540.56;;;0.28;100.00
58973;BME280;44750;52.040;7.472;2023-04-04T05:32:10;101552.50;;;0.40;100.00
58973;BME280;44750;52.040;7.472;2023-04-04T05:37:10;101557.03;;;0.38;100.00
58973;BME280;44750;52.040;7.472;2023-04-04T05:42:10;101559.09;;;0.52;100.00
58973;BME280;44750;52.040;7.472;2023-04-04T05:47:10;101569.66;;;0.53;100.00
58973;BME280;44750;52.040;7.472;2023-04-04T05:52:11;101563.03;;;0.43;100.00
58973;BME280;44750;52.040;7.472;2023-04-04T05:57:11;101580.00;;;0.61;100.00
58973;BME280;44750;52.040;7.472;2023-04-04T06:02:11;101585.78;;;0.71;100.00
58973;BME280;44750;52.040;7.472;2023-04-04T06:07:11;101598.66;;;0.81;100.00
58973;BME280;44750;52.040;7.472;2023-04-04T06:12:11;101584.06;;;0.70;100.00
58973;BME280;44750;52.040;7.472;2023-04-04T06:17:12;101589.66;;;0.63;100.00
58973;BME280;44750;52.040;7.472;2023-04-04T06:22:12;101598.25;;;0.70;100.00
58973;BME280;44750;52.040;7.472;2023-04-04T06:27:12;101605.97;;;0.76;100.00
58973;BME280;44750;52.040;7.472;2023-04-04T06:32:12;101607.16;;;0.90;100.00
58973;BME280;44750;52.040;7.472;2023-04-04T06:37:13;101609.41;;;0.99;100.00
58973;BME280;44750;52.040;7.472;2023-04-04T06:42:13;101619.03;;;1.22;100.00
58973;BME280;44750;52.040;7.472;2023-04-04T06:47:13;101641.41;;;1.58;100.00
58973;BME280;44750;52.040;7.472;2023-04-04T06:52:13;101662.94;;;2.10;100.00
58973;BME280;44750;52.040;7.472;2023-04-04T06:57:14;101663.56;;;2.52;100.00
58973;BME280;44750;52.040;7.472;2023-04-04T07:02:14;101646.97;;;2.45;100.00
58973;BME280;44750;52.040;7.472;2023-04-04T07:07:14;101633.91;;;2.39;100.00
58973;BME280;44750;52.040;7.472;2023-04-04T07:12:14;101662.22;;;2.78;100.00
58973;BME280;44750;52.040;7.472;2023-04-04T07:17:15;101671.88;;;3.16;100.00
58973;BME280;44750;52.040;7.472;2023-04-04T07:22:15;101670.03;;;3.50;100.00
58973;BME280;44750;52.040;7.472;2023-04-04T07:27:15;101651.91;;;3.55;100.00
58973;BME280;44750;52.040;7.472;2023-04-04T07:32:15;101660.06;;;3.70;100.00
58973;BME280;44750;52.040;7.472;2023-04-04T07:37:15;101694.34;;;4.27;100.00
58973;BME280;44750;52.040;7.472;2023-04-04T07:42:16;101701.03;;;4.66;100.00
58973;BME280;44750;52.040;7.472;2023-04-04T07:47:17;101730.19;;;5.17;100.00
58973;BME280;44750;52.040;7.472;2023-04-04T07:52:17;101710.56;;;5.60;100.00
58973;BME280;44750;52.040;7.472;2023-04-04T07:57:17;101715.16;;;6.01;100.00
58973;BME280;44750;52.040;7.472;2023-04-04T08:02:17;101691.72;;;6.17;100.00
58973;BME280;44750;52.040;7.472;2023-04-04T08:07:17;101668.09;;;6.23;100.00
58973;BME280;44750;52.040;7.472;2023-04-04T08:12:18;101704.38;;;6.70;100.00
58973;BME280;44750;52.040;7.472;2023-04-04T08:17:18;101691.25;;;7.18;100.00
58973;BME280;44750;52.040;7.472;2023-04-04T08:22:18;101642.75;;;7.06;100.00
58973;BME280;44750;52.040;7.472;2023-04-04T08:27:18;101697.69;;;7.55;100.00
58973;BME280;44750;52.040;7.472;2023-04-04T08:32:19;101631.44;;;7.39;99.76
58973;BME280;44750;52.040;7.472;2023-04-04T08:37:19;101647.88;;;7.73;95.94
58973;BME280;44750;52.040;7.472;2023-04-04T08:42:20;101657.94;;;8.19;94.78
58973;BME280;44750;52.040;7.472;2023-04-04T08:47:22;101626.84;;;8.51;92.72
58973;BME280;44750;52.040;7.472;2023-04-04T08:52:25;101537.84;;;8.27;89.49
58973;BME280;44750;52.040;7.472;2023-04-04T08:57:26;101524.56;;;8.48;87.04
58973;BME280;44750;52.040;7.472;2023-04-04T09:08:00;101370.69;;;8.14;76.91
58973;BME280;44750;52.040;7.472;2023-04-04T09:13:02;101256.44;;;8.26;73.99
58973;BME280;44750;52.040;7.472;2023-04-04T09:18:03;101136.94;;;8.58;70.43
58973;BME280;44750;52.040;7.472;2023-04-04T09:23:05;100465.56;;;7.75;66.36
58973;BME280;44750;52.040;7.472;2023-04-04T09:28:06;100616.28;;;8.27;66.38
58973;BME280;44750;52.040;7.472;2023-04-04T09:33:08;100560.66;;;8.36;65.45
58973;BME280;44750;52.040;7.472;2023-04-04T09:38:09;100744.88;;;8.97;65.50
58973;BME280;44750;52.040;7.472;2023-04-04T09:43:10;100313.63;;;8.43;64.94
58973;BME280;44750;52.040;7.472;2023-04-04T09:48:11;100322.16;;;8.48;64.58
58973;BME280;44750;52.040;7.472;2023-04-04T09:53:17;100408.09;;;8.71;64.67
58973;BME280;44750;52.040;7.472;2023-04-04T09:58:29;100004.81;;;8.65;62.08
58973;BME280;44750;52.040;7.472;2023-04-04T10:03:31;100012.63;;;8.32;62.88
58973;BME280;44750;52.040;7.472;2023-04-04T10:08:32;99953.91;;;8.44;61.78
58973;BME280;44750;52.040;7.472;2023-04-04T10:13:35;100255.53;;;9.13;61.48
58973;BME280;44750;52.040;7.472;2023-04-04T10:18:35;99722.50;;;8.48;61.05
58973;BME280;44750;52.040;7.472;2023-04-04T10:23:36;99800.34;;;8.43;61.66
58973;BME280;44750;52.040;7.472;2023-04-04T10:28:36;99903.88;;;8.50;62.29
58973;BME280;44750;52.040;7.472;2023-04-04T10:34:06;100366.88;;;9.61;61.84
58973;BME280;44750;52.040;7.472;2023-04-04T10:39:39;99969.09;;;9.41;60.36
58973;BME280;44750;52.040;7.472;2023-04-04T10:44:44;99656.78;;;9.23;58.88
58973;BME280;44750;52.040;7.472;2023-04-04T10:49:45;99373.59;;;8.32;59.80
58973;BME280;44750;52.040;7.472;2023-04-04T10:54:50;99749.91;;;8.86;59.98
58973;BME280;44750;52.040;7.472;2023-04-04T11:00:13;99606.88;;;9.02;57.89
58973;BME280;44750;52.040;7.472;2023-04-04T11:10:26;99304.81;;;9.39;53.24
58973;BME280;44750;52.040;7.472;2023-04-04T11:15:46;98380.75;;;8.39;52.44
58973;BME280;44750;52.040;7.472;2023-04-04T11:20:53;99470.59;;;9.38;54.98
58973;BME280;44750;52.040;7.472;2023-04-04T11:25:54;99105.66;;;9.03;55.15
58973;BME280;44750;52.040;7.472;2023-04-04T11:37:13;98999.38;;;9.04;56.49
58973;BME280;44750;52.040;7.472;2023-04-04T11:46:44;99597.06;;;9.82;56.73
58973;BME280;44750;52.040;7.472;2023-04-04T11:51:45;99406.50;;;9.78;56.06
58973;BME280;44750;52.040;7.472;2023-04-04T11:56:45;99580.94;;;10.20;56.11
58973;BME280;44750;52.040;7.472;2023-04-04T12:01:46;98229.34;;;8.83;51.79
58973;BME280;44750;52.040;7.472;2023-04-04T12:06:48;98919.56;;;9.46;53.20
58973;BME280;44750;52.040;7.472;2023-04-04T12:11:49;98817.69;;;9.18;55.49
58973;BME280;44750;52.040;7.472;2023-04-04T12:16:51;98928.53;;;9.17;55.81
58973;BME280;44750;52.040;7.472;2023-04-04T12:21:52;99274.06;;;9.63;56.22
58973;BME280;44750;52.040;7.472;2023-04-04T12:26:53;99231.09;;;10.07;54.85
58973;BME280;44750;52.040;7.472;2023-04-04T12:31:54;98622.25;;;9.41;54.46
58973;BME280;44750;52.040;7.472;2023-04-04T12:36:55;98956.00;;;9.72;53.89
58973;BME280;44750;52.040;7.472;2023-04-04T12:41:58;98662.06;;;9.61;53.30
58973;BME280;44750;52.040;7.472;2023-04-04T12:47:04;99247.50;;;10.50;53.17
58973;BME280;44750;52.040;7.472;2023-04-04T12:52:06;99032.28;;;10.47;52.91
58973;BME280;44750;52.040;7.472;2023-04-04T12:57:06;98825.84;;;10.40;52.13
58973;BME280;44750;52.040;7.472;2023-04-04T13:02:08;99093.91;;;10.95;51.68
58973;BME280;44750;52.040;7.472;2023-04-04T13:07:25;98498.78;;;10.45;51.01
58973;BME280;44750;52.040;7.472;2023-04-04T13:12:26;98228.19;;;10.00;51.38
58973;BME280;44750;52.040;7.472;2023-04-04T13:17:46;98192.22;;;9.93;50.81
58973;BME280;44750;52.040;7.472;2023-04-04T13:22:46;98248.34;;;10.04;50.27
58973;BME280;44750;52.040;7.472;2023-04-04T13:27:47;98405.16;;;10.37;50.15
58973;BME280;44750;52.040;7.472;2023-04-04T13:32:48;97914.25;;;10.03;49.12
58973;BME280;44750;52.040;7.472;2023-04-04T13:37:48;98000.31;;;9.61;51.49
58973;BME280;44750;52.040;7.472;2023-04-04T13:42:48;97937.94;;;9.17;52.47
58973;BME280;44750;52.040;7.472;2023-04-04T13:47:48;98319.22;;;9.52;52.72
58973;BME280;44750;52.040;7.472;2023-04-04T13:52:49;98623.66;;;10.07;51.33
58973;BME280;44750;52.040;7.472;2023-04-04T13:57:49;98519.13;;;10.34;49.95
58973;BME280;44750;52.040;7.472;2023-04-04T14:02:49;98220.03;;;10.20;49.12
58973;BME280;44750;52.040;7.472;2023-04-04T14:07:50;98516.28;;;10.69;49.53
58973;BME280;44750;52.040;7.472;2023-04-04T14:12:50;98386.00;;;10.59;49.83
58973;BME280;44750;52.040;7.472;2023-04-04T14:17:50;98019.41;;;10.50;48.45
58973;BME280;44750;52.040;7.472;2023-04-04T14:22:50;97967.19;;;10.17;49.22
58973;BME280;44750;52.040;7.472;2023-04-04T14:27:51;98115.63;;;10.26;49.87
58973;BME280;44750;52.040;7.472;2023-04-04T14:32:51;97973.53;;;10.30;48.86
58973;BME280;44750;52.040;7.472;2023-04-04T14:37:51;97750.84;;;10.06;48.77
58973;BME280;44750;52.040;7.472;2023-04-04T14:42:51;97759.50;;;10.14;48.76
58973;BME280;44750;52.040;7.472;2023-04-04T14:47:51;97416.06;;;9.67;48.11
58973;BME280;44750;52.040;7.472;2023-04-04T14:52:52;97959.03;;;10.24;48.81
58973;BME280;44750;52.040;7.472;2023-04-04T14:57:52;97795.53;;;10.08;49.53
58973;BME280;44750;52.040;7.472;2023-04-04T15:02:52;97817.25;;;9.95;51.16
58973;BME280;44750;52.040;7.472;2023-04-04T15:07:53;97794.31;;;9.79;51.53
58973;BME280;44750;52.040;7.472;2023-04-04T15:12:53;97744.34;;;9.63;51.01
58973;BME280;44750;52.040;7.472;2023-04-04T15:17:53;97896.75;;;9.80;51.18
58973;BME280;44750;52.040;7.472;2023-04-04T15:22:53;98221.25;;;10.31;51.18
58973;BME280;44750;52.040;7.472;2023-04-04T15:27:54;98162.19;;;10.41;50.61
58973;BME280;44750;52.040;7.472;2023-04-04T15:32:55;98045.28;;;10.39;50.89
58973;BME280;44750;52.040;7.472;2023-04-04T15:37:55;97573.47;;;9.93;49.65
58973;BME280;44750;52.040;7.472;2023-04-04T15:42:56;97504.81;;;9.82;49.84
58973;BME280;44750;52.040;7.472;2023-04-04T15:47:56;97468.66;;;9.64;50.34
58973;BME280;44750;52.040;7.472;2023-04-04T15:52:56;97555.25;;;9.69;50.85
58973;BME280;44750;52.040;7.472;2023-04-04T15:57:56;97740.34;;;9.72;52.36
58973;BME280;44750;52.040;7.472;2023-04-04T16:02:57;97726.66;;;9.67;52.44
58973;BME280;44750;52.040;7.472;2023-04-04T16:07:57;97471.91;;;9.17;52.80
58973;BME280;44750;52.040;7.472;2023-04-04T16:12:57;97900.66;;;9.46;53.49
58973;BME280;44750;52.040;7.472;2023-04-04T16:17:58;98061.78;;;9.72;53.51
58973;BME280;44750;52.040;7.472;2023-04-04T16:22:58;97736.69;;;9.34;53.63
58973;BME280;44750;52.040;7.472;2023-04-04T16:27:58;98057.63;;;9.69;53.83
58973;BME280;44750;52.040;7.472;2023-04-04T16:32:58;97861.75;;;9.60;53.74
58973;BME280;44750;52.040;7.472;2023-04-04T16:37:58;98071.31;;;9.81;53.97
58973;BME280;44750;52.040;7.472;2023-04-04T16:42:59;97893.59;;;9.83;52.78
58973;BME280;44750;52.040;7.472;2023-04-04T16:47:59;97782.88;;;9.77;52.60
58973;BME280;44750;52.040;7.472;2023-04-04T16:53:00;97617.28;;;9.58;52.23
58973;BME280;44750;52.040;7.472;2023-04-04T16:58:00;97576.22;;;9.49;52.18
58973;BME280;44750;52.040;7.472;2023-04-04T17:03:00;97523.63;;;9.33;53.18
58973;BME280;44750;52.040;7.472;2023-04-04T17:08:01;97711.09;;;9.12;54.51
58973;BME280;44750;52.040;7.472;2023-04-04T17:13:01;97627.91;;;9.02;54.67
58973;BME280;44750;52.040;7.472;2023-04-04T17:18:01;97663.91;;;8.89;55.62
58973;BME280;44750;52.040;7.472;2023-04-04T17:23:01;97775.97;;;8.85;55.67
58973;BME280;44750;52.040;7.472;2023-04-04T17:28:02;97780.72;;;8.90;55.12
58973;BME280;44750;52.040;7.472;2023-04-04T17:33:02;97898.38;;;8.97;55.64
58973;BME280;44750;52.040;7.472;2023-04-04T17:38:02;97789.97;;;8.62;57.45
58973;BME280;44750;52.040;7.472;2023-04-04T17:43:03;97782.75;;;8.29;58.03
58973;BME280;44750;52.040;7.472;2023-04-04T17:48:03;97880.81;;;8.14;58.71
58973;BME280;44750;52.040;7.472;2023-04-04T17:53:03;97921.63;;;8.11;59.52
58973;BME280;44750;52.040;7.472;2023-04-04T17:58:03;98086.00;;;8.11;60.86
58973;BME280;44750;52.040;7.472;2023-04-04T18:03:04;98179.00;;;8.00;61.77
58973;BME280;44750;52.040;7.472;2023-04-04T18:08:04;98420.72;;;8.07;63.15
58973;BME280;44750;52.040;7.472;2023-04-04T18:13:04;98451.91;;;8.01;64.43
58973;BME280;44750;52.040;7.472;2023-04-04T18:18:05;98538.56;;;7.83;65.36
58973;BME280;44750;52.040;7.472;2023-04-04T18:23:05;98617.44;;;7.62;67.34
58973;BME280;44750;52.040;7.472;2023-04-04T18:28:05;98950.25;;;7.71;69.15
58973;BME280;44750;52.040;7.472;2023-04-04T18:33:06;99081.88;;;7.82;70.28
58973;BME280;44750;52.040;7.472;2023-04-04T18:38:06;99228.81;;;7.85;71.54
58973;BME280;44750;52.040;7.472;2023-04-04T18:43:06;99322.09;;;7.86;72.46
58973;BME280;44750;52.040;7.472;2023-04-04T18:48:07;99395.69;;;7.78;73.77
58973;BME280;44750;52.040;7.472;2023-04-04T18:53:07;99535.75;;;7.70;75.52
58973;BME280;44750;52.040;7.472;2023-04-04T18:58:07;99644.34;;;7.70;76.60
58973;BME280;44750;52.040;7.472;2023-04-04T19:03:07;99770.47;;;7.75;77.35
58973;BME280;44750;52.040;7.472;2023-04-04T19:08:10;99759.66;;;7.49;78.09
58973;BME280;44750;52.040;7.472;2023-04-04T19:13:13;99893.00;;;7.71;78.91
58973;BME280;44750;52.040;7.472;2023-04-04T19:18:13;99940.03;;;7.77;79.64
58973;BME280;44750;52.040;7.472;2023-04-04T19:23:14;99970.59;;;7.67;80.50
58973;BME280;44750;52.040;7.472;2023-04-04T19:28:15;99974.75;;;7.62;81.29
58973;BME280;44750;52.040;7.472;2023-04-04T19:33:18;100141.44;;;7.65;82.31
58973;BME280;44750;52.040;7.472;2023-04-04T19:38:21;100119.63;;;7.58;82.84
58973;BME280;44750;52.040;7.472;2023-04-04T19:43:22;100177.50;;;7.54;83.61
58973;BME280;44750;52.040;7.472;2023-04-04T19:48:48;100207.00;;;7.46;84.80
58973;BME280;44750;52.040;7.472;2023-04-04T19:53:51;100303.97;;;7.36;85.95
58973;BME280;44750;52.040;7.472;2023-04-04T19:58:55;100371.00;;;7.39;86.82
58973;BME280;44750;52.040;7.472;2023-04-04T20:04:04;100407.84;;;7.39;87.69
58973;BME280;44750;52.040;7.472;2023-04-04T20:09:31;100452.91;;;7.46;87.93
58973;BME280;44750;52.040;7.472;2023-04-04T20:14:32;100389.53;;;7.32;88.33
58973;BME280;44750;52.040;7.472;2023-04-04T20:19:33;100501.50;;;7.35;89.14
58973;BME280;44750;52.040;7.472;2023-04-04T20:24:33;100546.63;;;7.43;89.50
58973;BME280;44750;52.040;7.472;2023-04-04T20:29:34;100502.09;;;7.39;89.79
58973;BME280;44750;52.040;7.472;2023-04-04T20:34:41;100549.44;;;7.41;90.38
58973;BME280;44750;52.040;7.472;2023-04-04T20:39:55;100597.47;;;7.36;91.43
58973;BME280;44750;52.040;7.472;2023-04-04T20:44:59;100626.47;;;7.23;92.38
58973;BME280;44750;52.040;7.472;2023-04-04T20:55:22;100705.13;;;7.05;94.46
58973;BME280;44750;52.040;7.472;2023-04-04T21:05:31;100791.28;;;6.94;96.41
58973;BME280;44750;52.040;7.472;2023-04-04T21:15:34;100761.28;;;6.66;97.48
58973;BME280;44750;52.040;7.472;2023-04-04T21:25:44;100862.53;;;6.56;98.87
58973;BME280;44750;52.040;7.472;2023-04-04T21:30:45;100905.31;;;6.47;100.00
58973;BME280;44750;52.040;7.472;2023-04-04T21:35:47;100988.81;;;6.46;100.00
58973;BME280;44750;52.040;7.472;2023-04-04T21:40:47;101051.69;;;6.56;100.00
58973;BME280;44750;52.040;7.472;2023-04-04T21:45:48;101032.22;;;6.52;100.00
58973;BME280;44750;52.040;7.472;2023-04-04T21:50:48;101048.56;;;6.38;100.00
58973;BME280;44750;52.040;7.472;2023-04-04T21:55:48;101075.69;;;6.35;100.00
58973;BME280;44750;52.040;7.472;2023-04-04T22:00:48;101168.34;;;6.42;100.00
58973;BME280;44750;52.040;7.472;2023-04-04T22:05:49;101166.53;;;6.43;100.00
58973;BME280;44750;52.040;7.472;2023-04-04T22:10:49;101133.81;;;6.25;100.00
58973;BME280;44750;52.040;7.472;2023-04-04T22:15:49;101161.50;;;6.14;100.00
58973;BME280;44750;52.040;7.472;2023-04-04T22:20:49;101201.28;;;6.09;100.00
58973;BME280;44750;52.040;7.472;2023-04-04T22:25:50;101196.00;;;5.94;100.00
58973;BME280;44750;52.040;7.472;2023-04-04T22:30:50;101210.53;;;5.92;100.00
58973;BME280;44750;52.040;7.472;2023-04-04T22:35:50;101238.41;;;5.91;100.00
58973;BME280;44750;52.040;7.472;2023-04-04T22:40:50;101226.56;;;5.80;100.00
58973;BME280;44750;52.040;7.472;2023-04-04T22:45:51;101235.28;;;5.71;100.00
58973;BME280;44750;52.040;7.472;2023-04-04T22:50:52;101241.72;;;5.68;100.00
58973;BME280;44750;52.040;7.472;2023-04-04T22:55:53;101238.31;;;5.66;100.00
58973;BME280;44750;52.040;7.472;2023-04-04T23:00:53;101228.63;;;5.51;100.00
58973;BME280;44750;52.040;7.472;2023-04-04T23:05:53;101238.72;;;5.47;100.00
58973;BME280;44750;52.040;7.472;2023-04-04T23:10:54;101267.28;;;5.35;100.00
58973;BME280;44750;52.040;7.472;2023-04-04T23:15:54;101271.03;;;5.20;100.00
58973;BME280;44750;52.040;7.472;2023-04-04T23:20:54;101289.59;;;5.23;100.00
58973;BME280;44750;52.040;7.472;2023-04-04T23:25:54;101265.84;;;5.17;100.00
58973;BME280;44750;52.040;7.472;2023-04-04T23:30:54;101264.84;;;5.05;100.00
58973;BME280;44750;52.040;7.472;2023-04-04T23:35:55;101264.63;;;4.95;100.00
58973;BME280;44750;52.040;7.472;2023-04-04T23:40:55;101269.16;;;4.95;100.00
58973;BME280;44750;52.040;7.472;2023-04-04T23:45:55;101252.72;;;4.87;100.00
58973;BME280;44750;52.040;7.472;2023-04-04T23:50:55;101246.78;;;4.81;100.00
58973;BME280;44750;52.040;7.472;2023-04-04T23:55:56;101249.59;;;4.80;100.00
